Terminal Aerodrome Forecast
Issued by NWS

Home | Current Version | Previous Version | Text Only | Print | Product List | Glossary Off
Versions: 1 2 3 4 5 6 7 8 9 10 11 12 13 14 15

000
FTUS43 KMPX 250536 AAA
TAFAXN
TAF AMD
KAXN 250536Z 2506/2606 16009KT P6SM VCSH BKN090
      TEMPO 2507/2510 6SM SHRA OVC040
     FM251200 16013G21KT P6SM SCT020 BKN040
     FM260000 18006KT P6SM VCTS SCT040CB=

USA.gov is the U.S. government's official web portal to all federal, state and local government web resources and services.